createdAt,value
2018-08-03T00:00:41.408Z,23.03
2018-08-03T00:03:11.124Z,23.00
2018-08-03T00:05:40.791Z,23.22
2018-08-03T00:08:10.464Z,23.37
2018-08-03T00:10:40.171Z,23.48
2018-08-03T00:13:09.851Z,23.56
2018-08-03T00:15:39.576Z,23.59
2018-08-03T00:18:09.291Z,23.58
2018-08-03T00:20:38.980Z,23.52
2018-08-03T00:23:08.676Z,23.46
2018-08-03T00:25:38.424Z,23.34
2018-08-03T00:28:08.141Z,23.25
2018-08-03T00:30:38.267Z,23.32
2018-08-03T00:33:07.969Z,23.28
2018-08-03T00:35:37.684Z,22.98
2018-08-03T00:38:07.434Z,22.90
2018-08-03T00:40:37.108Z,23.06
2018-08-03T00:43:06.838Z,23.06
2018-08-03T00:45:36.559Z,22.96
2018-08-03T00:48:06.215Z,22.73
2018-08-03T00:50:35.892Z,22.66
2018-08-03T00:53:05.584Z,22.70
2018-08-03T00:55:35.268Z,22.81
2018-08-03T00:58:04.934Z,22.96
2018-08-03T01:00:34.707Z,23.03
2018-08-03T01:03:04.446Z,23.08
2018-08-03T01:05:34.204Z,23.08
2018-08-03T01:08:03.873Z,23.05
2018-08-03T01:10:33.549Z,23.01
2018-08-03T01:13:03.404Z,22.91
2018-08-03T01:15:33.075Z,22.83
2018-08-03T01:18:02.739Z,22.77
2018-08-03T01:20:32.455Z,22.75
2018-08-03T01:23:02.116Z,22.70
2018-08-03T01:25:31.795Z,22.66
2018-08-03T01:28:01.584Z,22.58
2018-08-03T01:30:31.621Z,22.52
2018-08-03T01:33:01.626Z,22.43
2018-08-03T01:35:31.377Z,22.39
2018-08-03T01:38:01.076Z,22.27
2018-08-03T01:40:30.796Z,22.20
2018-08-03T01:43:00.480Z,22.05
2018-08-03T01:45:30.205Z,21.92
2018-08-03T01:47:59.876Z,22.06
2018-08-03T01:50:29.572Z,22.18
2018-08-03T01:52:59.288Z,22.30
2018-08-03T01:55:28.986Z,22.31
2018-08-03T01:57:58.684Z,22.23
2018-08-03T02:00:28.448Z,22.04
2018-08-03T02:02:58.129Z,21.92
2018-08-03T02:05:27.840Z,21.74
2018-08-03T02:07:57.593Z,21.77
2018-08-03T02:10:27.272Z,21.80
2018-08-03T02:12:56.940Z,21.63
2018-08-03T02:15:26.716Z,21.59
2018-08-03T02:17:56.390Z,21.73
2018-08-03T02:20:28.965Z,21.55
2018-08-03T02:22:58.660Z,21.72
2018-08-03T02:25:28.411Z,21.56
2018-08-03T02:27:58.113Z,21.47
2018-08-03T02:30:27.847Z,21.65
2018-08-03T02:32:57.583Z,21.72
2018-08-03T02:35:27.269Z,21.59
2018-08-03T02:37:56.956Z,21.48
2018-08-03T02:40:26.704Z,21.67
2018-08-03T02:42:56.407Z,21.70
2018-08-03T02:45:26.121Z,21.61
2018-08-03T02:47:55.857Z,21.49
2018-08-03T02:50:25.553Z,21.37
2018-08-03T02:52:55.306Z,21.41
2018-08-03T02:55:25.023Z,21.27
2018-08-03T02:57:54.725Z,21.32
2018-08-03T03:00:24.431Z,21.31
2018-08-03T03:02:54.112Z,21.10
2018-08-03T03:05:23.808Z,21.03
2018-08-03T03:07:53.872Z,20.89
2018-08-03T03:10:23.592Z,20.86
2018-08-03T03:12:53.359Z,20.99
2018-08-03T03:15:23.096Z,21.01
2018-08-03T03:17:52.798Z,21.09
2018-08-03T03:20:22.524Z,21.35
2018-08-03T03:22:52.220Z,21.47
2018-08-03T03:25:21.927Z,21.44
2018-08-03T03:27:51.704Z,21.49
2018-08-03T03:30:21.376Z,21.41
2018-08-03T03:32:51.120Z,21.41
2018-08-03T03:35:20.823Z,21.40
2018-08-03T03:37:50.510Z,21.35
2018-08-03T03:40:20.295Z,21.11
2018-08-03T03:42:49.980Z,20.88
2018-08-03T03:45:19.667Z,20.75
2018-08-03T03:47:49.405Z,20.69
2018-08-03T03:50:19.099Z,20.82
2018-08-03T03:52:48.868Z,20.72
2018-08-03T03:55:18.660Z,20.60
2018-08-03T03:57:48.577Z,20.61
2018-08-03T04:00:18.327Z,20.48
2018-08-03T04:02:48.016Z,20.44
2018-08-03T04:05:17.680Z,20.43
2018-08-03T04:07:47.525Z,20.44
2018-08-03T04:10:17.192Z,20.39
2018-08-03T04:12:46.883Z,20.35
2018-08-03T04:15:16.666Z,20.35
2018-08-03T04:17:46.343Z,20.40
2018-08-03T04:20:16.146Z,20.73
2018-08-03T04:22:46.271Z,20.89
2018-08-03T04:25:16.001Z,20.97
2018-08-03T04:27:45.712Z,20.99
2018-08-03T04:30:15.468Z,21.10
2018-08-03T04:32:45.148Z,21.16
2018-08-03T04:35:14.867Z,21.13
2018-08-03T04:37:44.605Z,21.04
2018-08-03T04:40:14.277Z,21.03
2018-08-03T04:42:43.952Z,21.04
2018-08-03T04:45:13.728Z,21.10
2018-08-03T04:47:43.404Z,21.14
2018-08-03T04:50:13.151Z,21.16
2018-08-03T04:52:42.827Z,21.16
2018-08-03T04:55:12.524Z,21.19
2018-08-03T04:57:42.255Z,21.24
2018-08-03T05:00:12.106Z,21.28
2018-08-03T05:02:41.840Z,21.36
2018-08-03T05:05:12.054Z,21.41
2018-08-03T05:07:41.718Z,21.46
2018-08-03T05:10:11.395Z,21.55
2018-08-03T05:12:41.455Z,21.60
2018-08-03T05:15:11.119Z,21.70
2018-08-03T05:17:40.767Z,21.80
2018-08-03T05:20:10.491Z,21.85
2018-08-03T05:22:40.154Z,21.94
2018-08-03T05:25:09.812Z,22.07
2018-08-03T05:27:39.516Z,22.18
2018-08-03T05:30:10.123Z,22.27
2018-08-03T05:32:39.821Z,22.34
2018-08-03T05:35:09.860Z,22.43
2018-08-03T05:37:39.564Z,22.51
2018-08-03T05:40:09.285Z,22.58
2018-08-03T05:42:39.020Z,22.69
2018-08-03T05:45:09.354Z,22.73
2018-08-03T05:47:39.028Z,22.80
2018-08-03T05:50:08.791Z,22.92
2018-08-03T05:52:38.539Z,22.96
2018-08-03T05:55:08.298Z,23.03
2018-08-03T05:57:37.978Z,23.17
2018-08-03T06:00:07.733Z,23.29
2018-08-03T06:02:37.412Z,23.31
2018-08-03T06:05:07.860Z,23.48
2018-08-03T06:07:37.572Z,23.57
2018-08-03T06:10:07.328Z,23.67
2018-08-03T06:12:36.989Z,23.73
2018-08-03T06:15:08.642Z,23.82
2018-08-03T06:17:38.568Z,23.85
2018-08-03T06:20:10.006Z,23.95
2018-08-03T06:22:39.705Z,24.02
2018-08-03T06:25:10.014Z,24.11
2018-08-03T06:27:39.770Z,24.10
2018-08-03T06:30:11.281Z,24.15
2018-08-03T06:32:41.017Z,24.22
2018-08-03T06:35:10.741Z,24.29
2018-08-03T06:37:40.422Z,24.37
2018-08-03T06:40:10.117Z,24.46
2018-08-03T06:42:39.808Z,24.62
2018-08-03T06:45:09.516Z,24.75
2018-08-03T06:47:39.176Z,24.84
2018-08-03T06:50:08.865Z,24.93
2018-08-03T06:52:38.500Z,25.11
2018-08-03T06:55:08.268Z,25.21
2018-08-03T06:57:37.965Z,25.29
2018-08-03T07:00:08.440Z,25.46
2018-08-03T07:02:38.103Z,25.63
2018-08-03T07:05:07.821Z,25.66
2018-08-03T07:07:37.592Z,25.77
2018-08-03T07:10:07.972Z,25.94
2018-08-03T07:12:37.688Z,26.01
2018-08-03T07:15:07.393Z,26.09
2018-08-03T07:17:37.128Z,26.24
2018-08-03T07:20:06.929Z,26.21
2018-08-03T07:22:36.547Z,26.37
2018-08-03T07:25:06.712Z,26.58
2018-08-03T07:27:36.379Z,26.73
2018-08-03T07:30:06.956Z,26.77
2018-08-03T07:32:36.615Z,26.92
2018-08-03T07:35:06.355Z,26.95
2018-08-03T07:37:36.051Z,26.97
2018-08-03T07:40:05.770Z,27.18
2018-08-03T07:42:35.760Z,27.16
2018-08-03T07:45:05.775Z,27.31
2018-08-03T07:47:35.451Z,27.37
2018-08-03T07:50:05.536Z,27.41
2018-08-03T07:52:35.230Z,27.65
2018-08-03T07:55:05.072Z,27.72
2018-08-03T07:57:34.775Z,27.87
2018-08-03T08:00:05.028Z,28.09
2018-08-03T08:02:34.715Z,28.15
2018-08-03T08:05:04.439Z,28.18
2018-08-03T08:07:34.155Z,28.24
2018-08-03T08:10:03.904Z,28.11
2018-08-03T08:12:33.557Z,28.34
2018-08-03T08:15:03.292Z,28.59
2018-08-03T08:17:32.941Z,28.67
2018-08-03T08:20:02.636Z,28.71
2018-08-03T08:22:32.349Z,28.88
2018-08-03T08:25:01.997Z,28.96
2018-08-03T08:27:31.659Z,29.12
2018-08-03T08:30:01.432Z,29.37
2018-08-03T08:32:31.156Z,29.50
2018-08-03T08:35:00.814Z,29.61
2018-08-03T08:37:30.533Z,29.60
2018-08-03T08:40:00.254Z,29.80
2018-08-03T08:42:29.913Z,29.95
2018-08-03T08:44:59.651Z,29.95
2018-08-03T08:47:29.338Z,30.02
2018-08-03T08:49:58.996Z,30.12
2018-08-03T08:52:28.692Z,30.17
2018-08-03T08:54:58.407Z,30.43
2018-08-03T08:57:28.142Z,30.50
2018-08-03T08:59:57.787Z,30.65
2018-08-03T09:02:27.464Z,30.67
2018-08-03T09:04:57.178Z,30.65
2018-08-03T09:07:26.901Z,30.69
2018-08-03T09:09:56.534Z,30.81
2018-08-03T09:12:26.225Z,30.89
2018-08-03T09:14:55.904Z,30.95
2018-08-03T09:17:25.611Z,31.13
2018-08-03T09:19:55.300Z,31.29
2018-08-03T09:22:24.980Z,31.32
2018-08-03T09:24:54.716Z,31.13
2018-08-03T09:27:24.391Z,31.26
2018-08-03T09:29:54.101Z,31.40
2018-08-03T09:32:23.813Z,31.47
2018-08-03T09:34:53.456Z,31.43
2018-08-03T09:37:23.176Z,31.48
2018-08-03T09:39:53.573Z,31.64
2018-08-03T09:42:23.363Z,31.74
2018-08-03T09:44:53.144Z,31.92
2018-08-03T09:47:22.787Z,31.85
2018-08-03T09:49:52.509Z,31.79
2018-08-03T09:52:22.280Z,32.10
2018-08-03T09:54:51.997Z,32.28
2018-08-03T09:57:21.720Z,32.57
2018-08-03T09:59:51.390Z,32.77
2018-08-03T10:02:21.254Z,32.77
2018-08-03T10:04:51.005Z,32.68
2018-08-03T10:07:20.675Z,32.58
2018-08-03T10:09:50.689Z,32.51
2018-08-03T10:12:20.372Z,32.56
2018-08-03T10:14:50.067Z,32.56
2018-08-03T10:17:19.751Z,32.73
2018-08-03T10:19:49.521Z,32.80
2018-08-03T10:22:19.247Z,32.91
2018-08-03T10:24:48.883Z,33.06
2018-08-03T10:27:18.589Z,33.32
2018-08-03T10:29:48.290Z,33.43
2018-08-03T10:32:17.971Z,33.53
2018-08-03T10:34:47.665Z,33.60
2018-08-03T10:37:17.357Z,33.71
2018-08-03T10:39:47.008Z,33.73
2018-08-03T10:42:16.719Z,33.95
2018-08-03T10:44:46.660Z,34.08
2018-08-03T10:47:16.411Z,34.14
2018-08-03T10:49:46.056Z,34.32
2018-08-03T10:52:15.835Z,34.36
2018-08-03T10:54:45.553Z,34.37
2018-08-03T10:57:15.222Z,34.54
2018-08-03T10:59:44.900Z,34.49
2018-08-03T11:02:14.627Z,34.29
2018-08-03T11:04:44.304Z,34.30
2018-08-03T11:07:14.048Z,34.36
2018-08-03T11:09:43.733Z,34.36
2018-08-03T11:12:13.536Z,34.25
2018-08-03T11:14:43.227Z,34.16
2018-08-03T11:17:12.924Z,34.20
2018-08-03T11:19:42.575Z,34.43
2018-08-03T11:22:12.305Z,34.58
2018-08-03T11:24:41.967Z,34.67
2018-08-03T11:27:11.663Z,34.62
2018-08-03T11:29:41.436Z,34.73
2018-08-03T11:32:11.086Z,34.83
2018-08-03T11:34:40.817Z,34.83
2018-08-03T11:37:10.535Z,34.50
2018-08-03T11:39:40.221Z,34.93
2018-08-03T11:42:09.901Z,35.06
2018-08-03T11:44:39.611Z,35.08
2018-08-03T11:47:09.311Z,35.12
2018-08-03T11:49:38.999Z,35.31
2018-08-03T11:52:08.731Z,35.54
2018-08-03T11:54:38.404Z,35.71
2018-08-03T11:57:08.152Z,35.73
2018-08-03T11:59:37.803Z,35.81
2018-08-03T12:02:07.578Z,35.73
2018-08-03T12:04:37.292Z,35.80
2018-08-03T12:07:06.960Z,36.10
2018-08-03T12:09:36.624Z,36.24
2018-08-03T12:12:06.405Z,35.87
2018-08-03T12:14:36.153Z,35.85
2018-08-03T12:17:05.867Z,35.98
2018-08-03T12:19:35.577Z,35.91
2018-08-03T12:22:05.341Z,36.27
2018-08-03T12:24:35.102Z,36.45
2018-08-03T12:27:04.767Z,36.69
2018-08-03T12:29:34.531Z,36.43
2018-08-03T12:32:04.236Z,36.90
2018-08-03T12:34:33.888Z,37.17
2018-08-03T12:37:03.585Z,37.14
2018-08-03T12:39:33.274Z,37.20
2018-08-03T12:42:02.968Z,37.43
2018-08-03T12:44:32.629Z,37.57
2018-08-03T12:47:02.373Z,37.40
2018-08-03T12:49:32.048Z,37.48
2018-08-03T12:52:01.754Z,37.56
2018-08-03T12:54:31.492Z,37.78
2018-08-03T12:57:01.174Z,37.91
2018-08-03T12:59:30.838Z,37.83
2018-08-03T13:02:00.551Z,38.05
2018-08-03T13:04:30.249Z,38.24
2018-08-03T13:06:59.923Z,38.12
2018-08-03T13:09:29.640Z,37.50
2018-08-03T13:11:59.353Z,37.85
2018-08-03T13:14:29.016Z,38.00
2018-08-03T13:16:58.756Z,38.04
2018-08-03T13:19:28.419Z,38.09
2018-08-03T13:21:58.180Z,38.17
2018-08-03T13:24:27.868Z,38.21
2018-08-03T13:26:57.589Z,38.36
2018-08-03T13:29:27.354Z,38.21
2018-08-03T13:31:57.020Z,38.19
2018-08-03T13:34:26.684Z,38.10
2018-08-03T13:36:56.371Z,38.05
2018-08-03T13:39:26.038Z,37.29
2018-08-03T13:41:56.017Z,37.61
2018-08-03T13:44:25.687Z,37.73
2018-08-03T13:46:55.402Z,37.73
2018-08-03T13:49:25.071Z,37.87
2018-08-03T13:51:54.724Z,37.83
2018-08-03T13:54:24.444Z,37.76
2018-08-03T13:56:54.176Z,37.78
2018-08-03T13:59:23.861Z,37.95
2018-08-03T14:02:04.632Z,37.91
2018-08-03T14:04:34.300Z,37.92
2018-08-03T14:07:04.092Z,37.68
2018-08-03T14:09:33.759Z,37.91
2018-08-03T14:12:03.755Z,37.99
2018-08-03T14:14:33.491Z,37.91
2018-08-03T14:17:03.163Z,38.22
2018-08-03T14:19:32.884Z,38.40
2018-08-03T14:22:02.795Z,38.33
2018-08-03T14:24:32.500Z,38.23
2018-08-03T14:27:02.479Z,38.24
2018-08-03T14:29:32.270Z,38.38
2018-08-03T14:32:02.210Z,38.44
2018-08-03T14:34:31.908Z,38.42
2018-08-03T14:37:01.620Z,38.35
2018-08-03T14:39:31.451Z,38.20
2018-08-03T14:42:01.118Z,37.65
2018-08-03T14:44:30.848Z,37.83
2018-08-03T14:47:00.616Z,37.94
2018-08-03T14:49:30.294Z,37.77
2018-08-03T14:52:00.002Z,37.64
2018-08-03T14:54:29.780Z,37.29
2018-08-03T14:56:59.439Z,37.06
2018-08-03T14:59:29.156Z,36.40
2018-08-03T15:01:58.842Z,36.36
2018-08-03T15:04:28.517Z,36.10
2018-08-03T15:06:58.451Z,36.10
2018-08-03T15:09:28.119Z,36.09
2018-08-03T15:11:57.787Z,36.05
2018-08-03T15:14:27.467Z,35.98
2018-08-03T15:16:57.124Z,35.83
2018-08-03T15:19:26.776Z,35.72
2018-08-03T15:21:56.581Z,35.64
2018-08-03T15:24:26.332Z,35.56
2018-08-03T15:26:55.994Z,35.46
2018-08-03T15:29:25.695Z,35.44
2018-08-03T15:31:55.361Z,35.35
2018-08-03T15:34:25.076Z,35.35
2018-08-03T15:36:54.725Z,35.36
2018-08-03T15:39:24.482Z,35.29
2018-08-03T15:41:54.257Z,35.13
2018-08-03T15:44:24.055Z,34.98
2018-08-03T15:46:53.803Z,34.95
2018-08-03T15:49:23.575Z,34.92
2018-08-03T15:51:54.257Z,34.92
2018-08-03T15:54:24.028Z,34.78
2018-08-03T15:56:53.763Z,34.74
2018-08-03T15:59:23.431Z,34.57
2018-08-03T16:01:53.135Z,34.60
2018-08-03T16:04:22.790Z,34.61
2018-08-03T16:06:52.553Z,34.54
2018-08-03T16:09:22.228Z,34.54
2018-08-03T16:11:51.918Z,34.46
2018-08-03T16:14:21.629Z,34.44
2018-08-03T16:16:51.284Z,34.36
2018-08-03T16:19:21.398Z,34.29
2018-08-03T16:21:51.047Z,34.28
2018-08-03T16:24:20.751Z,34.16
2018-08-03T16:26:50.521Z,34.14
2018-08-03T16:29:20.225Z,34.14
2018-08-03T16:31:49.913Z,34.21
2018-08-03T16:34:19.626Z,34.18
2018-08-03T16:36:49.352Z,34.09
2018-08-03T16:39:19.057Z,34.09
2018-08-03T16:41:48.727Z,33.98
2018-08-03T16:44:18.377Z,33.88
2018-08-03T16:46:48.089Z,33.74
2018-08-03T16:49:17.756Z,33.71
2018-08-03T16:51:47.456Z,33.56
2018-08-03T16:54:17.207Z,33.62
2018-08-03T16:56:46.883Z,33.58
2018-08-03T16:59:16.572Z,33.55
2018-08-03T17:01:46.291Z,33.55
2018-08-03T17:04:15.964Z,33.53
2018-08-03T17:06:45.611Z,33.56
2018-08-03T17:09:15.311Z,33.47
2018-08-03T17:11:45.003Z,33.47
2018-08-03T17:14:14.671Z,33.34
2018-08-03T17:16:44.563Z,33.28
2018-08-03T17:19:14.222Z,33.19
2018-08-03T17:21:43.932Z,33.17
2018-08-03T17:24:13.638Z,33.19
2018-08-03T17:26:43.285Z,33.14
2018-08-03T17:29:13.000Z,33.03
2018-08-03T17:31:42.740Z,33.05
2018-08-03T17:34:12.389Z,32.91
2018-08-03T17:36:42.096Z,32.94
2018-08-03T17:39:12.132Z,32.90
2018-08-03T17:41:41.868Z,32.88
2018-08-03T17:44:11.618Z,32.78
2018-08-03T17:46:41.260Z,32.69
2018-08-03T17:49:10.947Z,32.64
2018-08-03T17:51:40.654Z,32.65
2018-08-03T17:54:10.363Z,32.63
2018-08-03T17:56:40.012Z,32.61
2018-08-03T17:59:09.679Z,32.49
2018-08-03T18:01:39.348Z,32.44
2018-08-03T18:04:09.104Z,32.48
2018-08-03T18:06:38.776Z,32.39
2018-08-03T18:09:08.669Z,32.29
2018-08-03T18:11:38.411Z,32.30
2018-08-03T18:14:08.075Z,32.22
2018-08-03T18:16:37.748Z,32.17
2018-08-03T18:19:07.497Z,32.19
2018-08-03T18:21:37.169Z,32.06
2018-08-03T18:24:06.915Z,32.06
2018-08-03T18:26:36.659Z,32.00
2018-08-03T18:29:06.485Z,31.91
2018-08-03T18:31:36.217Z,31.87
2018-08-03T18:34:05.904Z,31.83
2018-08-03T18:36:35.619Z,31.81
2018-08-03T18:39:07.513Z,31.74
2018-08-03T18:41:37.159Z,31.72
2018-08-03T18:44:06.921Z,31.63
2018-08-03T18:46:36.638Z,31.55
2018-08-03T18:49:06.304Z,31.49
2018-08-03T18:51:35.979Z,31.44
2018-08-03T18:54:05.669Z,31.39
2018-08-03T18:56:35.336Z,31.31
2018-08-03T18:59:05.068Z,31.24
2018-08-03T19:01:34.711Z,31.18
2018-08-03T19:04:04.496Z,31.11
2018-08-03T19:06:34.143Z,31.02
2018-08-03T19:09:05.020Z,30.93
2018-08-03T19:11:34.976Z,30.90
2018-08-03T19:14:04.704Z,30.85
2018-08-03T19:16:34.417Z,30.76
2018-08-03T19:19:04.123Z,30.70
2018-08-03T19:21:33.764Z,30.56
2018-08-03T19:24:03.514Z,30.54
2018-08-03T19:26:33.157Z,30.51
2018-08-03T19:29:02.797Z,30.44
2018-08-03T19:31:32.475Z,30.36
2018-08-03T19:34:02.145Z,30.29
2018-08-03T19:36:31.804Z,30.23
2018-08-03T19:39:01.499Z,30.13
2018-08-03T19:41:31.148Z,30.08
2018-08-03T19:44:00.784Z,29.99
2018-08-03T19:46:30.511Z,29.94
2018-08-03T19:49:00.160Z,29.86
2018-08-03T19:51:29.784Z,29.83
2018-08-03T19:53:59.487Z,29.76
2018-08-03T19:56:29.121Z,29.67
2018-08-03T19:58:58.793Z,29.60
2018-08-03T20:01:28.811Z,29.40
2018-08-03T20:03:58.493Z,29.21
2018-08-03T20:06:28.225Z,29.19
2018-08-03T20:08:57.871Z,29.14
2018-08-03T20:11:27.559Z,29.03
2018-08-03T20:13:57.278Z,28.97
2018-08-03T20:16:27.312Z,28.99
2018-08-03T20:18:56.962Z,28.87
2018-08-03T20:21:26.672Z,28.61
2018-08-03T20:23:56.407Z,28.48
2018-08-03T20:26:26.224Z,28.33
2018-08-03T20:28:55.892Z,28.31
2018-08-03T20:31:25.679Z,28.41
2018-08-03T20:33:55.348Z,28.22
2018-08-03T20:36:25.052Z,28.19
2018-08-03T20:38:54.768Z,28.20
2018-08-03T20:41:24.436Z,28.20
2018-08-03T20:43:54.130Z,28.25
2018-08-03T20:46:24.061Z,28.17
2018-08-03T20:48:53.815Z,28.20
2018-08-03T20:51:23.541Z,28.04
2018-08-03T20:53:53.186Z,27.99
2018-08-03T20:56:22.846Z,27.71
2018-08-03T20:58:52.636Z,27.59
2018-08-03T21:01:22.349Z,27.82
2018-08-03T21:03:52.059Z,27.73
2018-08-03T21:06:21.782Z,27.75
2018-08-03T21:08:51.512Z,27.64
2018-08-03T21:11:21.236Z,27.61
2018-08-03T21:13:51.001Z,27.54
2018-08-03T21:16:20.695Z,27.36
2018-08-03T21:18:50.436Z,27.35
2018-08-03T21:21:20.148Z,27.06
2018-08-03T21:23:49.847Z,26.85
2018-08-03T21:26:19.578Z,26.80
2018-08-03T21:28:49.269Z,27.01
2018-08-03T21:31:18.944Z,26.88
2018-08-03T21:33:48.679Z,26.96
2018-08-03T21:36:18.379Z,26.93
2018-08-03T21:38:48.122Z,26.58
2018-08-03T21:41:17.819Z,26.64
2018-08-03T21:43:47.535Z,26.82
2018-08-03T21:46:17.287Z,26.89
2018-08-03T21:48:47.008Z,26.81
2018-08-03T21:51:16.688Z,26.78
2018-08-03T21:53:46.488Z,26.69
2018-08-03T21:56:16.175Z,26.57
2018-08-03T21:58:45.849Z,26.52
2018-08-03T22:01:15.644Z,26.47
2018-08-03T22:03:45.371Z,26.47
2018-08-03T22:06:15.131Z,26.38
2018-08-03T22:08:44.818Z,26.26
2018-08-03T22:11:14.513Z,26.27
2018-08-03T22:13:44.274Z,26.20
2018-08-03T22:16:13.649Z,26.21
2018-08-03T22:18:42.999Z,26.10
2018-08-03T22:21:12.424Z,26.03
2018-08-03T22:23:41.776Z,26.03
2018-08-03T22:26:11.137Z,25.95
2018-08-03T22:28:40.579Z,25.75
2018-08-03T22:31:10.262Z,25.71
2018-08-03T22:33:39.928Z,25.73
2018-08-03T22:36:09.643Z,25.72
2018-08-03T22:38:39.402Z,25.68
2018-08-03T22:41:09.240Z,25.66
2018-08-03T22:43:41.827Z,25.70
2018-08-03T22:46:11.975Z,25.66
2018-08-03T22:48:41.675Z,25.67
2018-08-03T22:51:11.500Z,25.54
2018-08-03T22:53:41.172Z,25.55
2018-08-03T22:56:10.996Z,25.63
2018-08-03T22:58:40.754Z,25.56
2018-08-03T23:01:10.513Z,25.67
2018-08-03T23:03:40.315Z,25.58
2018-08-03T23:06:10.158Z,25.46
2018-08-03T23:08:39.903Z,25.30
2018-08-03T23:11:09.738Z,25.19
2018-08-03T23:13:39.468Z,25.09
2018-08-03T23:16:09.250Z,25.06
2018-08-03T23:18:39.056Z,25.04
2018-08-03T23:21:08.861Z,24.99
2018-08-03T23:23:38.595Z,24.87
2018-08-03T23:26:08.256Z,25.11
2018-08-03T23:28:37.917Z,25.12
2018-08-03T23:31:07.766Z,25.03
2018-08-03T23:33:37.475Z,24.98
2018-08-03T23:36:07.168Z,24.83
2018-08-03T23:38:36.843Z,24.74
2018-08-03T23:41:06.581Z,24.70
2018-08-03T23:43:36.254Z,24.65
2018-08-03T23:46:06.191Z,24.58
2018-08-03T23:48:35.852Z,24.56
2018-08-03T23:51:05.534Z,24.54
2018-08-03T23:53:35.311Z,24.45
2018-08-03T23:56:05.036Z,24.43
2018-08-03T23:58:34.707Z,24.48
